Portada
METAR-TAF:

METAR-TAF

Aeroports :

Los Mochis, Mèxic

latitud: 25-41N, longitud: 109-05W, altitud: 4 m

Observació

L'informe es va fer fa 6 hores i 50 minuts, a les 01:40 UTC
Vent 15 kt del Nord-Oest
Temperatura 20°C
Humitat 37%
Pressió 1013 hPa
Visibilitat: 12.9 km
Cel clar

METAR: MMLM 280140Z 31015KT 8SM SKC 20/05 A2991 RMK HZY

Hora: 01:30 (08:30 UTC)

Pronòstic

L'informe es va fer fa 6 hores i 8 minuts, a les 02:22 UTC
Pronòstic vàlid del 28 a les 06 UTC al 29 a les 06 UTC
Vent 8 kt del Oest/Nord-Oest
Visibilitat: 10 km
Cel clar
A partir de les 28 a les 1600 UTC
Vent 15 kt del Nord/Nord-Oest
Visibilitat: 10 km
Cel clar
A partir de les 29 a les 0200 UTC
Vent 8 kt del Nord/Nord-Oest
Visibilitat: 10 km
Cel clar

TAF: MMLM 280222Z 2806/2906 30008KT P6SM SKC FM281600 33015KT P6SM SKC FM290200 33008KT P6SM SKC

Observacions i pronòstics meteorològics de més de 4000 aeroports (METAR i TAF).

Les estacions disponibles són els punts grocs i vermells al mapa.

Posi el ratolí al punt desitjat per veure el nom de l'estació.

Feu clic per veure les observacions i els pronòstics meteorològics.

Per canviar el mapa: feu clic els botons verds amb una creu de color negre per apropar; al botó verd amb un guió per allunyar la imatge; o en les fletxes verdes per a mapes adjacents.


METAR-TAF: